TimePST,TemperatureF,Dew PointF,Humidity,Sea Level PressureIn,VisibilityMPH,Wind Direction,Wind SpeedMPH,Gust SpeedMPH,PrecipitationIn,Events,Conditions,WindDirDegrees,DateUTC
12:53 AM,30.0,23.0,75,30.24,10.0,Calm,Calm,-,N/A,,Overcast,0,2013-01-24 08:53:00
1:53 AM,30.9,23.0,72,30.24,10.0,NE,6.9,-,N/A,,Overcast,50,2013-01-24 09:53:00
2:53 AM,32.0,26.1,79,30.24,10.0,SE,5.8,-,0.00,Rain,Light Rain,130,2013-01-24 10:53:00
3:53 AM,34.0,28.9,82,30.23,10.0,Calm,Calm,-,0.00,Rain,Light Rain,0,2013-01-24 11:53:00
4:53 AM,30.9,27.0,85,30.24,10.0,NW,3.5,-,0.00,,Overcast,320,2013-01-24 12:53:00
5:53 AM,35.1,30.9,85,30.25,10.0,NE,6.9,-,0.00,Rain,Light Rain,40,2013-01-24 13:53:00
6:53 AM,32.0,28.9,88,30.27,7.0,WSW,4.6,-,0.00,,Overcast,250,2013-01-24 14:53:00
7:53 AM,32.0,28.9,88,30.28,8.0,Calm,Calm,-,0.00,,Overcast,0,2013-01-24 15:53:00
8:53 AM,34.0,30.9,89,30.29,9.0,NNW,5.8,-,N/A,,Overcast,330,2013-01-24 16:53:00
9:53 AM,37.0,34.0,89,30.30,10.0,NE,9.2,-,N/A,,Overcast,40,2013-01-24 17:53:00
10:53 AM,39.0,35.1,86,30.30,10.0,ENE,8.1,-,N/A,,Overcast,70,2013-01-24 18:53:00
11:53 AM,42.1,37.0,82,30.28,10.0,North,3.5,-,N/A,,Overcast,350,2013-01-24 19:53:00
12:53 PM,42.1,36.0,79,30.26,10.0,ENE,5.8,-,N/A,,Overcast,60,2013-01-24 20:53:00
1:53 PM,43.0,36.0,76,30.24,10.0,NE,6.9,-,N/A,,Overcast,40,2013-01-24 21:53:00
2:53 PM,44.1,37.0,76,30.25,10.0,NE,6.9,-,N/A,,Overcast,50,2013-01-24 22:53:00
3:53 PM,43.0,37.0,80,30.25,10.0,NE,6.9,-,N/A,,Overcast,40,2013-01-24 23:53:00
4:53 PM,42.1,36.0,79,30.26,10.0,NE,5.8,-,N/A,,Overcast,40,2013-01-25 00:53:00
5:53 PM,37.0,33.1,86,30.27,10.0,ENE,5.8,-,N/A,,Mostly Cloudy,70,2013-01-25 01:53:00
6:53 PM,36.0,32.0,86,30.30,10.0,Calm,Calm,-,N/A,,Overcast,0,2013-01-25 02:53:00
7:53 PM,37.0,33.1,86,30.30,10.0,NE,4.6,-,N/A,,Overcast,40,2013-01-25 03:53:00
8:53 PM,35.1,32.0,89,30.30,10.0,Calm,Calm,-,N/A,,Mostly Cloudy,0,2013-01-25 04:53:00
9:53 PM,35.1,32.0,89,30.30,10.0,Calm,Calm,-,N/A,,Overcast,0,2013-01-25 05:53:00
10:53 PM,34.0,30.9,89,30.30,8.0,NNW,3.5,-,0.00,Rain,Light Rain,330,2013-01-25 06:53:00
11:53 PM,34.0,34.0,100,30.29,5.0,ENE,3.5,-,0.02,Rain,Light Rain,70,2013-01-25 07:53:00